sensor_id;sensor_type;location;lat;lon;timestamp;temperature;humidity
66522;SHT31;53349;53.538;8.584;2023-04-01T00:02:24;10.30;85.46
66522;SHT31;53349;53.538;8.584;2023-04-01T00:04:50;10.28;85.42
66522;SHT31;53349;53.538;8.584;2023-04-01T00:07:18;10.24;85.33
66522;SHT31;53349;53.538;8.584;2023-04-01T00:09:43;10.27;85.37
66522;SHT31;53349;53.538;8.584;2023-04-01T00:12:08;10.27;85.37
66522;SHT31;53349;53.538;8.584;2023-04-01T00:14:34;10.30;85.34
66522;SHT31;53349;53.538;8.584;2023-04-01T00:17:03;10.27;85.47
66522;SHT31;53349;53.538;8.584;2023-04-01T00:19:28;10.28;85.39
66522;SHT31;53349;53.538;8.584;2023-04-01T00:21:55;10.27;85.45
66522;SHT31;53349;53.538;8.584;2023-04-01T00:24:22;10.25;85.32
66522;SHT31;53349;53.538;8.584;2023-04-01T00:26:50;10.28;85.44
66522;SHT31;53349;53.538;8.584;2023-04-01T00:29:18;10.28;85.44
66522;SHT31;53349;53.538;8.584;2023-04-01T00:31:43;10.27;85.53
66522;SHT31;53349;53.538;8.584;2023-04-01T00:34:08;10.28;85.55
66522;SHT31;53349;53.538;8.584;2023-04-01T00:36:35;10.20;85.56
66522;SHT31;53349;53.538;8.584;2023-04-01T00:39:00;10.21;85.65
66522;SHT31;53349;53.538;8.584;2023-04-01T00:41:27;10.20;85.80
66522;SHT31;53349;53.538;8.584;2023-04-01T00:43:52;10.22;85.71
66522;SHT31;53349;53.538;8.584;2023-04-01T00:46:19;10.20;85.78
66522;SHT31;53349;53.538;8.584;2023-04-01T00:48:54;10.20;85.70
66522;SHT31;53349;53.538;8.584;2023-04-01T00:51:25;10.21;85.92
66522;SHT31;53349;53.538;8.584;2023-04-01T00:53:53;10.21;85.89
66522;SHT31;53349;53.538;8.584;2023-04-01T00:56:22;10.21;85.89
66522;SHT31;53349;53.538;8.584;2023-04-01T00:58:57;10.21;85.89
66522;SHT31;53349;53.538;8.584;2023-04-01T01:01:24;10.22;85.85
66522;SHT31;53349;53.538;8.584;2023-04-01T01:03:52;10.24;85.77
66522;SHT31;53349;53.538;8.584;2023-04-01T01:11:50;10.24;85.80
66522;SHT31;53349;53.538;8.584;2023-04-01T01:14:34;10.27;85.74
66522;SHT31;53349;53.538;8.584;2023-04-01T01:17:10;10.30;85.76
66522;SHT31;53349;53.538;8.584;2023-04-01T01:19:43;10.27;85.67
66522;SHT31;53349;53.538;8.584;2023-04-01T01:22:20;10.22;85.74
66522;SHT31;53349;53.538;8.584;2023-04-01T01:27:38;10.24;85.89
66522;SHT31;53349;53.538;8.584;2023-04-01T01:32:59;10.27;85.89
66522;SHT31;53349;53.538;8.584;2023-04-01T01:38:33;10.24;85.93
66522;SHT31;53349;53.538;8.584;2023-04-01T01:41:00;10.25;85.88
66522;SHT31;53349;53.538;8.584;2023-04-01T01:43:36;10.25;85.91
66522;SHT31;53349;53.538;8.584;2023-04-01T01:46:10;10.28;85.92
66522;SHT31;53349;53.538;8.584;2023-04-01T01:48:44;10.27;85.90
66522;SHT31;53349;53.538;8.584;2023-04-01T01:51:11;10.25;85.94
66522;SHT31;53349;53.538;8.584;2023-04-01T01:53:36;10.24;85.92
66522;SHT31;53349;53.538;8.584;2023-04-01T01:56:03;10.22;85.96
66522;SHT31;53349;53.538;8.584;2023-04-01T01:58:32;10.22;86.08
66522;SHT31;53349;53.538;8.584;2023-04-01T02:01:12;10.25;86.16
66522;SHT31;53349;53.538;8.584;2023-04-01T02:03:40;10.24;86.21
66522;SHT31;53349;53.538;8.584;2023-04-01T02:06:14;10.21;86.31
66522;SHT31;53349;53.538;8.584;2023-04-01T02:08:56;10.20;86.34
66522;SHT31;53349;53.538;8.584;2023-04-01T02:11:27;10.21;86.55
66522;SHT31;53349;53.538;8.584;2023-04-01T02:14:02;10.24;86.59
66522;SHT31;53349;53.538;8.584;2023-04-01T02:16:32;10.21;86.64
66522;SHT31;53349;53.538;8.584;2023-04-01T02:18:59;10.20;86.62
66522;SHT31;53349;53.538;8.584;2023-04-01T02:21:30;10.21;86.69
66522;SHT31;53349;53.538;8.584;2023-04-01T02:23:56;10.22;86.74
66522;SHT31;53349;53.538;8.584;2023-04-01T02:26:25;10.18;86.72
66522;SHT31;53349;53.538;8.584;2023-04-01T02:28:53;10.18;86.77
66522;SHT31;53349;53.538;8.584;2023-04-01T02:31:20;10.20;86.69
66522;SHT31;53349;53.538;8.584;2023-04-01T02:33:47;10.20;86.75
66522;SHT31;53349;53.538;8.584;2023-04-01T02:36:14;10.18;86.75
66522;SHT31;53349;53.538;8.584;2023-04-01T02:38:41;10.20;86.58
66522;SHT31;53349;53.538;8.584;2023-04-01T02:41:10;10.20;86.73
66522;SHT31;53349;53.538;8.584;2023-04-01T02:43:35;10.21;86.71
66522;SHT31;53349;53.538;8.584;2023-04-01T02:46:07;10.24;86.68
66522;SHT31;53349;53.538;8.584;2023-04-01T02:48:32;10.30;86.70
66522;SHT31;53349;53.538;8.584;2023-04-01T02:51:01;10.25;86.72
66522;SHT31;53349;53.538;8.584;2023-04-01T02:53:27;10.21;86.74
66522;SHT31;53349;53.538;8.584;2023-04-01T02:55:53;10.20;86.71
66522;SHT31;53349;53.538;8.584;2023-04-01T02:58:19;10.15;86.88
66522;SHT31;53349;53.538;8.584;2023-04-01T03:00:44;10.20;86.94
66522;SHT31;53349;53.538;8.584;2023-04-01T03:03:13;10.15;86.96
66522;SHT31;53349;53.538;8.584;2023-04-01T03:05:39;10.18;86.93
66522;SHT31;53349;53.538;8.584;2023-04-01T03:08:07;10.17;86.93
66522;SHT31;53349;53.538;8.584;2023-04-01T03:10:34;10.14;87.04
66522;SHT31;53349;53.538;8.584;2023-04-01T03:12:59;10.15;87.08
66522;SHT31;53349;53.538;8.584;2023-04-01T03:15:26;10.15;87.03
66522;SHT31;53349;53.538;8.584;2023-04-01T03:17:52;10.17;87.04
66522;SHT31;53349;53.538;8.584;2023-04-01T03:20:18;10.13;87.08
66522;SHT31;53349;53.538;8.584;2023-04-01T03:22:44;10.15;87.14
66522;SHT31;53349;53.538;8.584;2023-04-01T03:25:10;10.11;87.05
66522;SHT31;53349;53.538;8.584;2023-04-01T03:27:35;10.10;87.19
66522;SHT31;53349;53.538;8.584;2023-04-01T03:30:03;10.14;87.20
66522;SHT31;53349;53.538;8.584;2023-04-01T03:32:29;10.17;87.20
66522;SHT31;53349;53.538;8.584;2023-04-01T03:34:56;10.17;87.14
66522;SHT31;53349;53.538;8.584;2023-04-01T03:37:24;10.14;87.23
66522;SHT31;53349;53.538;8.584;2023-04-01T03:39:50;10.15;87.29
66522;SHT31;53349;53.538;8.584;2023-04-01T03:42:17;10.15;87.24
66522;SHT31;53349;53.538;8.584;2023-04-01T03:44:42;10.18;87.28
66522;SHT31;53349;53.538;8.584;2023-04-01T03:47:07;10.14;87.28
66522;SHT31;53349;53.538;8.584;2023-04-01T03:49:33;10.15;87.25
66522;SHT31;53349;53.538;8.584;2023-04-01T03:52:03;10.18;87.26
66522;SHT31;53349;53.538;8.584;2023-04-01T03:54:32;10.17;87.27
66522;SHT31;53349;53.538;8.584;2023-04-01T03:56:57;10.14;87.27
66522;SHT31;53349;53.538;8.584;2023-04-01T03:59:22;10.13;87.40
66522;SHT31;53349;53.538;8.584;2023-04-01T04:01:47;10.11;87.39
66522;SHT31;53349;53.538;8.584;2023-04-01T04:04:13;10.11;87.43
66522;SHT31;53349;53.538;8.584;2023-04-01T04:06:38;10.14;87.42
66522;SHT31;53349;53.538;8.584;2023-04-01T04:09:05;10.11;87.48
66522;SHT31;53349;53.538;8.584;2023-04-01T04:11:31;10.13;87.50
66522;SHT31;53349;53.538;8.584;2023-04-01T04:14:00;10.13;87.53
66522;SHT31;53349;53.538;8.584;2023-04-01T04:16:31;10.13;87.51
66522;SHT31;53349;53.538;8.584;2023-04-01T04:18:58;10.13;87.44
66522;SHT31;53349;53.538;8.584;2023-04-01T04:21:23;10.07;87.50
66522;SHT31;53349;53.538;8.584;2023-04-01T04:23:48;10.14;87.52
66522;SHT31;53349;53.538;8.584;2023-04-01T04:26:14;10.15;87.59
66522;SHT31;53349;53.538;8.584;2023-04-01T04:28:41;10.14;87.60
66522;SHT31;53349;53.538;8.584;2023-04-01T04:31:07;10.11;87.57
66522;SHT31;53349;53.538;8.584;2023-04-01T04:33:38;10.08;87.70
66522;SHT31;53349;53.538;8.584;2023-04-01T04:36:05;10.08;87.74
66522;SHT31;53349;53.538;8.584;2023-04-01T04:38:31;10.07;87.79
66522;SHT31;53349;53.538;8.584;2023-04-01T04:40:56;10.04;87.69
66522;SHT31;53349;53.538;8.584;2023-04-01T04:43:24;10.04;87.83
66522;SHT31;53349;53.538;8.584;2023-04-01T04:45:51;10.04;87.88
66522;SHT31;53349;53.538;8.584;2023-04-01T04:48:16;10.04;87.85
66522;SHT31;53349;53.538;8.584;2023-04-01T04:50:42;10.06;87.90
66522;SHT31;53349;53.538;8.584;2023-04-01T04:53:14;10.06;87.88
66522;SHT31;53349;53.538;8.584;2023-04-01T04:55:48;10.06;87.88
66522;SHT31;53349;53.538;8.584;2023-04-01T04:58:14;10.06;87.83
66522;SHT31;53349;53.538;8.584;2023-04-01T05:00:40;10.06;87.88
66522;SHT31;53349;53.538;8.584;2023-04-01T05:03:05;10.07;87.86
66522;SHT31;53349;53.538;8.584;2023-04-01T05:05:33;10.01;87.81
66522;SHT31;53349;53.538;8.584;2023-04-01T05:08:00;9.98;87.91
66522;SHT31;53349;53.538;8.584;2023-04-01T05:10:31;10.01;87.97
66522;SHT31;53349;53.538;8.584;2023-04-01T05:12:58;10.00;88.02
66522;SHT31;53349;53.538;8.584;2023-04-01T05:15:24;9.98;88.04
66522;SHT31;53349;53.538;8.584;2023-04-01T05:17:50;9.96;88.05
66522;SHT31;53349;53.538;8.584;2023-04-01T05:20:17;9.98;88.05
66522;SHT31;53349;53.538;8.584;2023-04-01T05:22:43;10.00;88.11
66522;SHT31;53349;53.538;8.584;2023-04-01T05:25:09;9.98;87.98
66522;SHT31;53349;53.538;8.584;2023-04-01T05:27:35;10.04;88.11
66522;SHT31;53349;53.538;8.584;2023-04-01T05:30:00;10.04;88.01
66522;SHT31;53349;53.538;8.584;2023-04-01T05:32:26;10.08;88.07
66522;SHT31;53349;53.538;8.584;2023-04-01T05:34:52;10.06;88.00
66522;SHT31;53349;53.538;8.584;2023-04-01T05:37:17;10.07;88.04
66522;SHT31;53349;53.538;8.584;2023-04-01T05:39:44;10.08;87.98
66522;SHT31;53349;53.538;8.584;2023-04-01T05:42:09;10.01;88.00
66522;SHT31;53349;53.538;8.584;2023-04-01T05:44:36;10.03;88.02
66522;SHT31;53349;53.538;8.584;2023-04-01T05:47:02;10.00;88.01
66522;SHT31;53349;53.538;8.584;2023-04-01T05:49:28;10.00;88.04
66522;SHT31;53349;53.538;8.584;2023-04-01T05:51:55;10.01;88.04
66522;SHT31;53349;53.538;8.584;2023-04-01T05:54:20;10.03;88.04
66522;SHT31;53349;53.538;8.584;2023-04-01T05:56:46;10.01;87.94
66522;SHT31;53349;53.538;8.584;2023-04-01T05:59:11;10.01;87.98
66522;SHT31;53349;53.538;8.584;2023-04-01T06:01:37;10.06;87.94
66522;SHT31;53349;53.538;8.584;2023-04-01T06:04:03;10.03;87.87
66522;SHT31;53349;53.538;8.584;2023-04-01T06:06:29;10.03;87.87
66522;SHT31;53349;53.538;8.584;2023-04-01T06:08:57;10.03;87.84
66522;SHT31;53349;53.538;8.584;2023-04-01T06:14:10;10.03;87.78
66522;SHT31;53349;53.538;8.584;2023-04-01T06:20:24;10.04;87.93
66522;SHT31;53349;53.538;8.584;2023-04-01T06:22:42;9.90;87.42
66522;SHT31;53349;53.538;8.584;2023-04-01T06:31:10;9.21;86.13
66522;SHT31;53349;53.538;8.584;2023-04-01T06:36:31;9.10;85.99
66522;SHT31;53349;53.538;8.584;2023-04-01T06:47:07;8.78;85.65
66522;SHT31;53349;53.538;8.584;2023-04-01T06:57:55;8.59;85.88
66522;SHT31;53349;53.538;8.584;2023-04-01T07:00:32;8.52;85.64
66522;SHT31;53349;53.538;8.584;2023-04-01T07:03:22;8.47;85.89
66522;SHT31;53349;53.538;8.584;2023-04-01T07:05:54;8.42;85.71
66522;SHT31;53349;53.538;8.584;2023-04-01T07:08:25;8.37;86.05
66522;SHT31;53349;53.538;8.584;2023-04-01T07:10:56;8.33;85.71
66522;SHT31;53349;53.538;8.584;2023-04-01T07:13:51;8.37;85.99
66522;SHT31;53349;53.538;8.584;2023-04-01T07:16:41;8.32;85.87
66522;SHT31;53349;53.538;8.584;2023-04-01T07:24:45;8.26;85.97
66522;SHT31;53349;53.538;8.584;2023-04-01T07:27:13;8.25;85.96
66522;SHT31;53349;53.538;8.584;2023-04-01T07:29:39;8.25;85.95
66522;SHT31;53349;53.538;8.584;2023-04-01T07:34:50;8.21;85.69
66522;SHT31;53349;53.538;8.584;2023-04-01T07:46:33;8.21;85.30
66522;SHT31;53349;53.538;8.584;2023-04-01T07:49:17;8.19;85.02
66522;SHT31;53349;53.538;8.584;2023-04-01T07:52:02;8.23;84.97
66522;SHT31;53349;53.538;8.584;2023-04-01T08:05:53;8.47;85.22
66522;SHT31;53349;53.538;8.584;2023-04-01T08:11:25;8.52;84.70
66522;SHT31;53349;53.538;8.584;2023-04-01T08:19:51;8.95;84.61
66522;SHT31;53349;53.538;8.584;2023-04-01T08:22:27;8.94;83.63
66522;SHT31;53349;53.538;8.584;2023-04-01T08:24:54;8.98;83.42
66522;SHT31;53349;53.538;8.584;2023-04-01T08:27:26;8.81;82.67
66522;SHT31;53349;53.538;8.584;2023-04-01T08:29:59;8.67;82.65
66522;SHT31;53349;53.538;8.584;2023-04-01T08:32:34;8.60;82.67
66522;SHT31;53349;53.538;8.584;2023-04-01T08:35:31;8.54;82.88
66522;SHT31;53349;53.538;8.584;2023-04-01T08:38:07;8.53;82.88
66522;SHT31;53349;53.538;8.584;2023-04-01T08:44:37;8.43;83.00
66522;SHT31;53349;53.538;8.584;2023-04-01T08:56:00;8.47;82.28
66522;SHT31;53349;53.538;8.584;2023-04-01T09:05:05;8.42;82.17
66522;SHT31;53349;53.538;8.584;2023-04-01T09:10:40;8.34;81.61
66522;SHT31;53349;53.538;8.584;2023-04-01T09:16:42;8.30;81.55
66522;SHT31;53349;53.538;8.584;2023-04-01T09:22:23;8.34;82.24
66522;SHT31;53349;53.538;8.584;2023-04-01T09:28:05;8.26;82.47
66522;SHT31;53349;53.538;8.584;2023-04-01T09:39:37;8.16;82.45
66522;SHT31;53349;53.538;8.584;2023-04-01T09:42:29;8.07;82.30
66522;SHT31;53349;53.538;8.584;2023-04-01T09:45:03;7.94;82.02
66522;SHT31;53349;53.538;8.584;2023-04-01T09:50:59;8.01;82.58
66522;SHT31;53349;53.538;8.584;2023-04-01T09:59:36;7.86;82.48
66522;SHT31;53349;53.538;8.584;2023-04-01T10:02:14;7.88;82.99
66522;SHT31;53349;53.538;8.584;2023-04-01T10:05:22;7.92;82.66
66522;SHT31;53349;53.538;8.584;2023-04-01T10:17:08;7.86;81.64
66522;SHT31;53349;53.538;8.584;2023-04-01T10:25:37;7.96;81.39
66522;SHT31;53349;53.538;8.584;2023-04-01T10:28:11;8.01;81.23
66522;SHT31;53349;53.538;8.584;2023-04-01T10:31:03;8.03;81.35
66522;SHT31;53349;53.538;8.584;2023-04-01T10:43:13;8.19;80.61
66522;SHT31;53349;53.538;8.584;2023-04-01T10:48:23;8.15;80.31
66522;SHT31;53349;53.538;8.584;2023-04-01T10:53:49;8.12;79.59
66522;SHT31;53349;53.538;8.584;2023-04-01T10:59:45;8.01;79.41
66522;SHT31;53349;53.538;8.584;2023-04-01T11:17:12;8.12;79.68
66522;SHT31;53349;53.538;8.584;2023-04-01T11:25:57;8.19;79.54
66522;SHT31;53349;53.538;8.584;2023-04-01T11:29:08;8.15;79.62
66522;SHT31;53349;53.538;8.584;2023-04-01T11:34:56;8.07;79.76
66522;SHT31;53349;53.538;8.584;2023-04-01T11:37:52;8.09;79.77
66522;SHT31;53349;53.538;8.584;2023-04-01T11:40:41;8.06;79.71
66522;SHT31;53349;53.538;8.584;2023-04-01T11:43:31;8.06;80.02
66522;SHT31;53349;53.538;8.584;2023-04-01T11:46:11;8.10;79.64
66522;SHT31;53349;53.538;8.584;2023-04-01T11:51:37;8.06;79.51
66522;SHT31;53349;53.538;8.584;2023-04-01T11:54:23;7.98;79.32
66522;SHT31;53349;53.538;8.584;2023-04-01T12:00:16;8.09;79.16
66522;SHT31;53349;53.538;8.584;2023-04-01T12:03:12;8.07;79.20
66522;SHT31;53349;53.538;8.584;2023-04-01T12:11:41;8.23;79.01
66522;SHT31;53349;53.538;8.584;2023-04-01T12:14:25;8.17;78.89
66522;SHT31;53349;53.538;8.584;2023-04-01T12:19:42;8.12;79.15
66522;SHT31;53349;53.538;8.584;2023-04-01T12:22:28;8.07;78.85
66522;SHT31;53349;53.538;8.584;2023-04-01T12:30:08;7.89;78.74
66522;SHT31;53349;53.538;8.584;2023-04-01T12:36:07;7.88;79.13
66522;SHT31;53349;53.538;8.584;2023-04-01T12:39:07;7.89;79.13
66522;SHT31;53349;53.538;8.584;2023-04-01T12:41:50;7.85;78.79
66522;SHT31;53349;53.538;8.584;2023-04-01T12:50:28;7.79;78.72
66522;SHT31;53349;53.538;8.584;2023-04-01T12:55:45;7.71;79.09
66522;SHT31;53349;53.538;8.584;2023-04-01T13:03:46;7.79;80.06
66522;SHT31;53349;53.538;8.584;2023-04-01T13:06:30;7.86;79.84
66522;SHT31;53349;53.538;8.584;2023-04-01T13:17:13;7.78;79.30
66522;SHT31;53349;53.538;8.584;2023-04-01T13:25:06;7.67;79.84
66522;SHT31;53349;53.538;8.584;2023-04-01T13:28:00;7.64;79.94
66522;SHT31;53349;53.538;8.584;2023-04-01T13:41:42;7.61;79.49
66522;SHT31;53349;53.538;8.584;2023-04-01T13:44:36;7.58;79.53
66522;SHT31;53349;53.538;8.584;2023-04-01T13:49:53;7.55;79.01
66522;SHT31;53349;53.538;8.584;2023-04-01T13:55:53;7.48;78.95
66522;SHT31;53349;53.538;8.584;2023-04-01T14:01:20;7.43;78.34
66522;SHT31;53349;53.538;8.584;2023-04-01T14:12:50;7.46;78.16
66522;SHT31;53349;53.538;8.584;2023-04-01T14:18:45;7.27;77.69
66522;SHT31;53349;53.538;8.584;2023-04-01T14:21:26;7.30;78.07
66522;SHT31;53349;53.538;8.584;2023-04-01T14:50:21;6.95;77.03
66522;SHT31;53349;53.538;8.584;2023-04-01T14:52:33;6.88;76.39
66522;SHT31;53349;53.538;8.584;2023-04-01T14:55:01;6.86;77.12
66522;SHT31;53349;53.538;8.584;2023-04-01T14:57:28;6.82;77.08
66522;SHT31;53349;53.538;8.584;2023-04-01T15:03:38;6.85;76.83
66522;SHT31;53349;53.538;8.584;2023-04-01T15:06:10;6.79;77.06
66522;SHT31;53349;53.538;8.584;2023-04-01T15:15:15;6.72;76.66
66522;SHT31;53349;53.538;8.584;2023-04-01T15:17:55;6.73;76.56
66522;SHT31;53349;53.538;8.584;2023-04-01T15:29:17;6.72;76.00
66522;SHT31;53349;53.538;8.584;2023-04-01T15:34:49;6.69;75.87
66522;SHT31;53349;53.538;8.584;2023-04-01T15:43:43;6.75;75.94
66522;SHT31;53349;53.538;8.584;2023-04-01T15:55:09;7.03;77.59
66522;SHT31;53349;53.538;8.584;2023-04-01T16:01:07;7.26;76.49
66522;SHT31;53349;53.538;8.584;2023-04-01T16:03:52;7.16;75.98
66522;SHT31;53349;53.538;8.584;2023-04-01T16:14:59;6.81;75.32
66522;SHT31;53349;53.538;8.584;2023-04-01T16:26:26;6.51;75.86
66522;SHT31;53349;53.538;8.584;2023-04-01T16:29:30;6.46;76.20
66522;SHT31;53349;53.538;8.584;2023-04-01T16:35:10;6.44;76.11
66522;SHT31;53349;53.538;8.584;2023-04-01T16:37:46;6.41;76.06
66522;SHT31;53349;53.538;8.584;2023-04-01T16:40:40;6.40;76.15
66522;SHT31;53349;53.538;8.584;2023-04-01T16:43:42;6.37;75.97
66522;SHT31;53349;53.538;8.584;2023-04-01T16:46:43;6.32;75.89
66522;SHT31;53349;53.538;8.584;2023-04-01T16:49:52;6.30;75.77
66522;SHT31;53349;53.538;8.584;2023-04-01T16:52:34;6.27;76.15
66522;SHT31;53349;53.538;8.584;2023-04-01T16:55:03;6.34;76.17
66522;SHT31;53349;53.538;8.584;2023-04-01T16:57:59;6.31;75.70
66522;SHT31;53349;53.538;8.584;2023-04-01T17:14:20;6.09;76.03
66522;SHT31;53349;53.538;8.584;2023-04-01T17:16:56;6.03;76.23
66522;SHT31;53349;53.538;8.584;2023-04-01T17:22:25;5.93;76.00
66522;SHT31;53349;53.538;8.584;2023-04-01T17:27:42;5.89;76.35
66522;SHT31;53349;53.538;8.584;2023-04-01T17:33:07;5.83;75.67
66522;SHT31;53349;53.538;8.584;2023-04-01T17:35:41;5.85;75.96
66522;SHT31;53349;53.538;8.584;2023-04-01T17:41:04;5.79;76.00
66522;SHT31;53349;53.538;8.584;2023-04-01T17:43:43;5.82;76.03
66522;SHT31;53349;53.538;8.584;2023-04-01T17:47:16;5.82;75.95
66522;SHT31;53349;53.538;8.584;2023-04-01T18:09:08;5.73;74.60
66522;SHT31;53349;53.538;8.584;2023-04-01T18:15:11;5.69;74.91
66522;SHT31;53349;53.538;8.584;2023-04-01T18:25:41;5.58;74.53
66522;SHT31;53349;53.538;8.584;2023-04-01T18:28:42;5.62;74.17
66522;SHT31;53349;53.538;8.584;2023-04-01T18:31:18;5.52;74.16
66522;SHT31;53349;53.538;8.584;2023-04-01T18:33:50;5.49;74.00
66522;SHT31;53349;53.538;8.584;2023-04-01T18:36:51;5.52;74.21
66522;SHT31;53349;53.538;8.584;2023-04-01T18:39:40;5.58;74.45
66522;SHT31;53349;53.538;8.584;2023-04-01T18:45:35;5.51;74.75
66522;SHT31;53349;53.538;8.584;2023-04-01T18:49:05;5.48;74.59
66522;SHT31;53349;53.538;8.584;2023-04-01T18:51:22;5.49;74.55
66522;SHT31;53349;53.538;8.584;2023-04-01T18:54:40;5.45;74.53
66522;SHT31;53349;53.538;8.584;2023-04-01T18:57:16;5.43;74.64
66522;SHT31;53349;53.538;8.584;2023-04-01T18:59:53;5.43;74.34
66522;SHT31;53349;53.538;8.584;2023-04-01T19:05:42;5.39;73.93
66522;SHT31;53349;53.538;8.584;2023-04-01T19:08:38;5.34;73.51
66522;SHT31;53349;53.538;8.584;2023-04-01T19:11:11;5.32;73.25
66522;SHT31;53349;53.538;8.584;2023-04-01T19:14:03;5.27;72.79
66522;SHT31;53349;53.538;8.584;2023-04-01T19:16:46;5.25;72.81
66522;SHT31;53349;53.538;8.584;2023-04-01T19:20:16;5.27;72.90
66522;SHT31;53349;53.538;8.584;2023-04-01T19:25:27;5.22;72.62
66522;SHT31;53349;53.538;8.584;2023-04-01T19:34:04;5.11;72.83
66522;SHT31;53349;53.538;8.584;2023-04-01T19:36:53;5.18;73.45
66522;SHT31;53349;53.538;8.584;2023-04-01T19:52:59;5.08;73.79
66522;SHT31;53349;53.538;8.584;2023-04-01T19:58:23;5.11;72.93
66522;SHT31;53349;53.538;8.584;2023-04-01T20:00:53;5.12;72.60
66522;SHT31;53349;53.538;8.584;2023-04-01T20:03:25;5.00;71.96
66522;SHT31;53349;53.538;8.584;2023-04-01T20:06:28;4.98;71.79
66522;SHT31;53349;53.538;8.584;2023-04-01T20:15:00;4.92;71.93
66522;SHT31;53349;53.538;8.584;2023-04-01T20:17:44;4.94;72.00
66522;SHT31;53349;53.538;8.584;2023-04-01T20:25:30;4.85;72.09
66522;SHT31;53349;53.538;8.584;2023-04-01T20:28:00;4.81;71.63
66522;SHT31;53349;53.538;8.584;2023-04-01T20:39:25;4.53;70.57
66522;SHT31;53349;53.538;8.584;2023-04-01T20:44:46;4.50;70.43
66522;SHT31;53349;53.538;8.584;2023-04-01T20:50:31;4.53;70.11
66522;SHT31;53349;53.538;8.584;2023-04-01T20:53:13;4.50;70.15
66522;SHT31;53349;53.538;8.584;2023-04-01T21:04:44;4.28;70.18
66522;SHT31;53349;53.538;8.584;2023-04-01T21:07:38;4.23;70.02
66522;SHT31;53349;53.538;8.584;2023-04-01T21:13:33;4.09;69.88
66522;SHT31;53349;53.538;8.584;2023-04-01T21:24:32;4.01;70.12
66522;SHT31;53349;53.538;8.584;2023-04-01T21:27:28;3.95;70.14
66522;SHT31;53349;53.538;8.584;2023-04-01T21:30:43;3.91;70.02
66522;SHT31;53349;53.538;8.584;2023-04-01T21:33:34;3.84;70.30
66522;SHT31;53349;53.538;8.584;2023-04-01T21:39:52;3.85;70.13
66522;SHT31;53349;53.538;8.584;2023-04-01T21:42:48;3.80;70.15
66522;SHT31;53349;53.538;8.584;2023-04-01T22:00:33;3.64;70.22
66522;SHT31;53349;53.538;8.584;2023-04-01T22:05:47;3.67;70.01
66522;SHT31;53349;53.538;8.584;2023-04-01T22:13:43;3.61;69.77
66522;SHT31;53349;53.538;8.584;2023-04-01T22:16:32;3.54;69.99
66522;SHT31;53349;53.538;8.584;2023-04-01T22:27:23;3.47;69.99
66522;SHT31;53349;53.538;8.584;2023-04-01T22:35:57;3.41;70.22
66522;SHT31;53349;53.538;8.584;2023-04-01T22:44:29;3.30;70.62
66522;SHT31;53349;53.538;8.584;2023-04-01T22:47:28;3.27;70.79
66522;SHT31;53349;53.538;8.584;2023-04-01T22:50:25;3.27;70.68
66522;SHT31;53349;53.538;8.584;2023-04-01T22:55:48;3.24;70.37
66522;SHT31;53349;53.538;8.584;2023-04-01T22:58:21;3.24;70.21
66522;SHT31;53349;53.538;8.584;2023-04-01T23:00:55;3.22;70.16
66522;SHT31;53349;53.538;8.584;2023-04-01T23:05:57;3.17;70.01
66522;SHT31;53349;53.538;8.584;2023-04-01T23:11:23;3.17;69.72
66522;SHT31;53349;53.538;8.584;2023-04-01T23:16:50;3.09;69.81
66522;SHT31;53349;53.538;8.584;2023-04-01T23:20:05;3.08;69.82
66522;SHT31;53349;53.538;8.584;2023-04-01T23:27:47;3.05;69.81
66522;SHT31;53349;53.538;8.584;2023-04-01T23:33:30;2.99;69.77
66522;SHT31;53349;53.538;8.584;2023-04-01T23:36:12;2.93;69.89
66522;SHT31;53349;53.538;8.584;2023-04-01T23:38:41;2.93;69.90
66522;SHT31;53349;53.538;8.584;2023-04-01T23:41:17;2.96;69.98
66522;SHT31;53349;53.538;8.584;2023-04-01T23:43:45;2.92;69.76
66522;SHT31;53349;53.538;8.584;2023-04-01T23:46:13;2.91;69.76
66522;SHT31;53349;53.538;8.584;2023-04-01T23:48:44;2.88;69.78
66522;SHT31;53349;53.538;8.584;2023-04-01T23:51:18;2.89;69.62
66522;SHT31;53349;53.538;8.584;2023-04-01T23:53:46;2.92;69.61
66522;SHT31;53349;53.538;8.584;2023-04-01T23:56:16;2.88;69.71
66522;SHT31;53349;53.538;8.584;2023-04-01T23:58:48;2.88;69.71
